Time;durP1;ratioP1;P1;durP2;ratioP2;P2;SDS_P1;SDS_P2;PMS_P1;PMS_P2;Temp;Humidity;BMP_temperature;BMP_pressure;BME280_temperature;BME280_humidity;BME280_pressure;Samples;Min_cycle;Max_cycle;Signal;HPM_P1;HPM_P2
2021/03/16 00:01:35;;;;;;;5.03;1.72;;;5.40;99.90;;;;;;2016638;71;21554;-71
2021/03/16 00:04:04;;;;;;;3.00;1.22;;;5.50;99.90;;;;;;2014906;71;21106;-71
2021/03/16 00:06:31;;;;;;;7.03;1.17;;;5.40;99.90;;;;;;2016383;71;21125;-70
2021/03/16 00:08:57;;;;;;;7.70;1.30;;;5.40;99.90;;;;;;2016896;71;21047;-71
2021/03/16 00:11:23;;;;;;;2.72;1.22;;;5.40;99.90;;;;;;2016069;71;21129;-71
2021/03/16 00:13:49;;;;;;;3.33;1.15;;;5.40;99.90;;;;;;2014896;71;21443;-70
2021/03/16 00:16:15;;;;;;;2.62;1.10;;;5.40;99.90;;;;;;2016479;71;20980;-71
2021/03/16 00:18:41;;;;;;;3.47;1.42;;;5.40;99.90;;;;;;2017118;71;21055;-70
2021/03/16 00:21:09;;;;;;;2.45;1.00;;;5.40;99.90;;;;;;2017176;71;21028;-69
2021/03/16 00:23:35;;;;;;;3.90;1.12;;;5.40;99.90;;;;;;2017748;71;21120;-70
2021/03/16 00:26:01;;;;;;;1.80;1.37;;;5.40;99.90;;;;;;2015043;71;21051;-70
2021/03/16 00:28:27;;;;;;;4.42;1.25;;;5.30;99.90;;;;;;2015921;71;21063;-70
2021/03/16 00:30:53;;;;;;;6.90;1.55;;;5.30;99.90;;;;;;2017011;71;21127;-70
2021/03/16 00:33:19;;;;;;;3.22;1.30;;;5.30;99.90;;;;;;2017738;71;21051;-70
2021/03/16 00:35:46;;;;;;;2.27;1.15;;;5.30;99.90;;;;;;2017682;71;21552;-70
2021/03/16 00:38:12;;;;;;;6.33;1.67;;;5.30;99.90;;;;;;2017795;71;21094;-70
2021/03/16 00:40:38;;;;;;;1.45;0.88;;;5.30;99.90;;;;;;2016446;71;21020;-70
2021/03/16 00:43:04;;;;;;;2.33;1.27;;;5.30;99.90;;;;;;2015085;71;21177;-70
2021/03/16 00:45:30;;;;;;;2.35;1.02;;;5.30;99.90;;;;;;2017717;71;21051;-70
2021/03/16 00:47:56;;;;;;;4.50;1.37;;;5.30;99.90;;;;;;2015440;71;21042;-71
2021/03/16 00:50:22;;;;;;;5.22;1.15;;;5.20;99.90;;;;;;2017583;71;21042;-70
2021/03/16 00:52:49;;;;;;;1.95;1.02;;;5.20;99.90;;;;;;2017595;71;21059;-70
2021/03/16 00:55:20;;;;;;;4.78;1.35;;;5.20;99.90;;;;;;2017648;71;21482;-70
2021/03/16 00:57:46;;;;;;;1.50;0.90;;;5.30;99.90;;;;;;2016866;71;21511;-70
2021/03/16 01:00:12;;;;;;;1.95;1.00;;;5.30;99.90;;;;;;2017050;71;21052;-70
2021/03/16 01:02:38;;;;;;;3.52;1.02;;;5.30;99.90;;;;;;2017161;71;21120;-70
2021/03/16 01:05:04;;;;;;;3.15;1.42;;;5.30;99.90;;;;;;2017640;71;21055;-70
2021/03/16 01:07:30;;;;;;;4.45;1.45;;;5.20;99.90;;;;;;2017713;71;21132;-70
2021/03/16 01:09:56;;;;;;;2.90;1.02;;;5.20;99.90;;;;;;2015742;71;21138;-70
2021/03/16 01:12:22;;;;;;;4.37;1.17;;;5.30;99.90;;;;;;2016103;71;21067;-71
2021/03/16 01:14:48;;;;;;;3.40;1.40;;;5.30;99.90;;;;;;2017309;71;21149;-70
2021/03/16 01:17:15;;;;;;;9.55;1.07;;;5.30;99.90;;;;;;2016763;71;21035;-70
2021/03/16 01:19:41;;;;;;;2.35;0.90;;;5.30;99.90;;;;;;2017784;71;21108;-71
2021/03/16 01:22:07;;;;;;;1.90;0.93;;;5.30;99.90;;;;;;2017272;71;21486;-71
2021/03/16 01:24:33;;;;;;;2.75;0.98;;;5.30;99.90;;;;;;2017283;71;21055;-70
2021/03/16 01:26:59;;;;;;;3.05;1.05;;;5.30;99.90;;;;;;2017438;71;21016;-70
2021/03/16 01:29:25;;;;;;;2.30;0.88;;;5.30;99.90;;;;;;2015563;71;21047;-71
2021/03/16 01:31:51;;;;;;;4.03;1.02;;;5.30;99.90;;;;;;2016890;71;21082;-70
2021/03/16 01:34:18;;;;;;;7.03;0.78;;;5.30;99.90;;;;;;2016122;71;21112;-71
2021/03/16 01:36:44;;;;;;;1.15;0.70;;;5.30;99.90;;;;;;2015801;71;21539;-70
2021/03/16 01:39:10;;;;;;;2.60;1.02;;;5.30;99.90;;;;;;2014399;71;21494;-69
2021/03/16 01:41:36;;;;;;;3.08;1.00;;;5.30;99.90;;;;;;2015733;71;21123;-70
2021/03/16 01:44:02;;;;;;;7.05;0.78;;;5.30;99.90;;;;;;2015854;71;21059;-70
2021/03/16 01:46:33;;;;;;;1.62;0.78;;;5.30;99.90;;;;;;2016071;71;21127;-70
2021/03/16 01:48:56;;;;;;;4.83;1.22;;;5.30;99.90;;;;;;2015668;71;21136;-70
2021/03/16 01:51:23;;;;;;;1.65;0.75;;;5.30;99.90;;;;;;2016558;71;21062;-70
2021/03/16 01:53:49;;;;;;;2.17;0.90;;;5.30;99.90;;;;;;2015956;71;21124;-70
2021/03/16 01:56:15;;;;;;;2.87;0.90;;;5.20;99.90;;;;;;2016591;71;21112;-70
2021/03/16 01:58:41;;;;;;;8.05;1.00;;;5.30;99.90;;;;;;2016488;71;21051;-70
2021/03/16 02:01:08;;;;;;;3.60;0.93;;;5.30;99.90;;;;;;2015931;71;21044;-71
2021/03/16 02:03:34;;;;;;;1.05;0.78;;;5.30;99.90;;;;;;2015883;71;21147;-70
2021/03/16 02:06:04;;;;;;;2.17;0.93;;;5.30;99.90;;;;;;2017793;71;21459;-70
2021/03/16 02:08:28;;;;;;;1.80;0.80;;;5.30;99.90;;;;;;2015405;71;21132;-70
2021/03/16 02:10:54;;;;;;;1.87;0.93;;;5.30;99.90;;;;;;2016898;71;21128;-70
2021/03/16 02:13:20;;;;;;;2.25;1.20;;;5.30;99.90;;;;;;2017324;71;21043;-70
2021/03/16 02:15:47;;;;;;;2.55;1.10;;;5.30;99.90;;;;;;2017795;71;21121;-69
2021/03/16 02:18:14;;;;;;;6.00;1.03;;;5.30;99.90;;;;;;2017808;71;21054;-70
2021/03/16 02:20:40;;;;;;;7.83;1.27;;;5.30;99.90;;;;;;2016234;71;21043;-70
2021/03/16 02:23:06;;;;;;;4.72;1.10;;;5.30;99.90;;;;;;2014917;71;21055;-70
2021/03/16 02:25:32;;;;;;;3.37;1.02;;;5.30;99.90;;;;;;2014969;71;21160;-69
2021/03/16 02:27:58;;;;;;;6.70;1.22;;;5.30;99.90;;;;;;2015860;71;21043;-69
2021/03/16 02:30:24;;;;;;;2.27;0.85;;;5.20;99.90;;;;;;2016510;71;21066;-70
2021/03/16 02:32:50;;;;;;;2.87;1.30;;;5.20;99.90;;;;;;2016721;71;21486;-70
2021/03/16 02:35:16;;;;;;;2.33;1.20;;;5.20;99.90;;;;;;2017989;71;21403;-70
2021/03/16 02:37:43;;;;;;;2.50;1.07;;;5.20;99.90;;;;;;2016685;71;21518;-70
2021/03/16 02:40:09;;;;;;;2.72;1.20;;;5.10;99.90;;;;;;2016530;71;21048;-70
2021/03/16 02:42:35;;;;;;;3.60;1.02;;;5.20;99.90;;;;;;2017318;71;21165;-70
2021/03/16 02:45:01;;;;;;;8.65;1.02;;;5.20;99.90;;;;;;2015639;71;21051;-70
2021/03/16 02:47:27;;;;;;;2.70;1.25;;;5.10;99.90;;;;;;2017190;71;21004;-70
2021/03/16 02:49:54;;;;;;;2.45;1.07;;;5.10;99.90;;;;;;2016151;71;21053;-69
2021/03/16 02:52:20;;;;;;;7.72;1.92;;;5.10;99.90;;;;;;2017794;71;21483;-69
2021/03/16 02:54:49;;;;;;;7.87;1.50;;;5.10;99.90;;;;;;2015806;71;21012;-69
2021/03/16 02:57:15;;;;;;;3.52;0.80;;;5.10;99.90;;;;;;2014993;71;21055;-71
2021/03/16 02:59:41;;;;;;;0.70;0.68;;;5.00;99.90;;;;;;2017211;71;21115;-70
2021/03/16 03:02:07;;;;;;;2.80;0.82;;;5.00;99.90;;;;;;2015987;71;21124;-68
2021/03/16 03:04:33;;;;;;;3.60;1.00;;;5.10;99.90;;;;;;2017367;71;21121;-70
2021/03/16 03:07:00;;;;;;;4.92;0.75;;;5.10;99.90;;;;;;2017770;71;21055;-71
2021/03/16 03:09:26;;;;;;;3.42;1.12;;;5.10;99.90;;;;;;2015525;71;21015;-71
2021/03/16 03:11:52;;;;;;;6.87;1.17;;;5.10;99.90;;;;;;2017860;71;21163;-69
2021/03/16 03:14:18;;;;;;;2.85;1.35;;;5.10;99.90;;;;;;2017614;71;21051;-70
2021/03/16 03:16:44;;;;;;;2.95;1.05;;;5.10;99.90;;;;;;2016647;71;21502;-70
2021/03/16 03:19:10;;;;;;;2.20;1.15;;;5.10;99.90;;;;;;2015646;71;21586;-68
2021/03/16 03:21:36;;;;;;;2.00;1.02;;;5.00;99.90;;;;;;2017734;71;21564;-70
2021/03/16 03:24:02;;;;;;;3.17;1.20;;;5.00;99.90;;;;;;2017036;71;21086;-69
2021/03/16 03:26:28;;;;;;;1.98;1.20;;;5.00;99.90;;;;;;2016084;71;21020;-70
2021/03/16 03:28:55;;;;;;;2.05;0.95;;;4.90;99.90;;;;;;2017682;71;21123;-70
2021/03/16 03:31:21;;;;;;;3.50;0.90;;;4.90;99.90;;;;;;2017689;71;21034;-70
2021/03/16 03:33:47;;;;;;;2.67;1.67;;;4.90;99.90;;;;;;2017796;71;21035;-68
2021/03/16 03:36:13;;;;;;;2.25;1.15;;;4.90;99.90;;;;;;2017667;71;21007;-70
2021/03/16 03:38:39;;;;;;;4.55;1.75;;;4.90;99.90;;;;;;2017720;71;21055;-68
2021/03/16 03:41:05;;;;;;;3.92;1.57;;;4.90;99.90;;;;;;2016724;71;21478;-68
2021/03/16 03:43:31;;;;;;;1.15;1.05;;;4.90;99.90;;;;;;2017691;71;21745;-70
2021/03/16 03:45:57;;;;;;;3.35;1.12;;;4.90;99.90;;;;;;2017395;71;21470;-70
2021/03/16 03:48:24;;;;;;;3.30;1.12;;;5.00;99.90;;;;;;2016433;71;21004;-70
2021/03/16 03:50:50;;;;;;;8.33;1.20;;;5.00;99.90;;;;;;2014809;71;21122;-70
2021/03/16 03:53:16;;;;;;;3.52;1.57;;;5.00;99.90;;;;;;2016574;71;21137;-70
2021/03/16 03:55:42;;;;;;;4.50;1.00;;;4.90;99.90;;;;;;2016495;71;21098;-70
2021/03/16 03:58:08;;;;;;;5.83;1.27;;;4.80;99.90;;;;;;2016441;71;21051;-70
2021/03/16 04:00:34;;;;;;;1.50;0.72;;;4.70;99.90;;;;;;2017048;71;21051;-71
2021/03/16 04:03:00;;;;;;;4.17;1.15;;;4.70;99.90;;;;;;2017109;71;21128;-69
2021/03/16 04:05:27;;;;;;;4.70;1.30;;;4.70;99.90;;;;;;2017682;71;21011;-69
2021/03/16 04:07:54;;;;;;;4.10;1.10;;;4.70;99.90;;;;;;2017791;71;21055;-69
2021/03/16 04:10:20;;;;;;;1.70;1.00;;;4.60;99.90;;;;;;2016906;71;21136;-70
2021/03/16 04:12:47;;;;;;;3.15;1.27;;;4.60;99.90;;;;;;2015806;71;21032;-70
2021/03/16 04:15:13;;;;;;;1.98;0.90;;;4.60;99.90;;;;;;2016487;71;21016;-70
2021/03/16 04:17:39;;;;;;;3.15;1.37;;;4.60;99.90;;;;;;2016311;71;21120;-70
2021/03/16 04:20:05;;;;;;;2.33;1.07;;;4.70;99.90;;;;;;2014841;71;21116;-68
2021/03/16 04:22:31;;;;;;;6.35;1.95;;;4.70;99.90;;;;;;2015187;71;21038;-70
2021/03/16 04:24:57;;;;;;;2.72;1.00;;;4.70;99.90;;;;;;2014828;71;21055;-68
2021/03/16 04:27:23;;;;;;;2.17;1.17;;;4.70;99.90;;;;;;2016527;71;21051;-70
2021/03/16 04:29:50;;;;;;;5.90;1.00;;;4.70;99.90;;;;;;2017053;71;21020;-70
2021/03/16 04:32:16;;;;;;;2.10;1.20;;;4.70;99.90;;;;;;2016989;71;21050;-70
2021/03/16 04:34:42;;;;;;;2.52;1.17;;;4.70;99.90;;;;;;2014765;71;21067;-68
2021/03/16 04:37:08;;;;;;;12.05;1.00;;;4.70;99.90;;;;;;2017782;71;21127;-68
2021/03/16 04:39:34;;;;;;;2.20;1.20;;;4.70;99.90;;;;;;2016532;71;21124;-70
2021/03/16 04:42:00;;;;;;;4.37;1.20;;;4.50;99.90;;;;;;2017166;71;21054;-71
2021/03/16 04:44:26;;;;;;;5.65;1.57;;;4.40;99.90;;;;;;2016826;71;21051;-70
2021/03/16 04:46:52;;;;;;;5.92;0.85;;;4.30;99.90;;;;;;2014801;71;21117;-70
2021/03/16 04:49:19;;;;;;;5.42;1.50;;;4.20;99.90;;;;;;2015184;71;21056;-70
2021/03/16 04:51:45;;;;;;;1.95;0.80;;;4.10;99.90;;;;;;2016132;71;21012;-69
2021/03/16 04:54:11;;;;;;;3.70;1.07;;;4.10;99.90;;;;;;2017284;71;21051;-69
2021/03/16 04:56:37;;;;;;;6.30;0.93;;;4.10;99.90;;;;;;2017185;71;21047;-70
2021/03/16 04:59:03;;;;;;;3.08;1.32;;;4.10;99.90;;;;;;2016894;71;21144;-70
2021/03/16 05:01:29;;;;;;;5.47;1.05;;;4.10;99.90;;;;;;2017949;71;21442;-69
2021/03/16 05:03:55;;;;;;;2.70;1.27;;;4.00;99.90;;;;;;2016857;71;21482;-70
2021/03/16 05:06:21;;;;;;;6.03;1.42;;;4.00;99.90;;;;;;2016656;71;21552;-70
2021/03/16 05:08:48;;;;;;;4.28;1.45;;;4.10;99.90;;;;;;2016706;71;21016;-70
2021/03/16 05:11:14;;;;;;;4.97;0.85;;;4.10;99.90;;;;;;2016268;71;21046;-70
2021/03/16 05:13:40;;;;;;;4.67;1.98;;;4.10;99.90;;;;;;2017658;71;21054;-69
2021/03/16 05:16:06;;;;;;;5.08;1.30;;;4.10;99.90;;;;;;2016459;71;21113;-69
2021/03/16 05:18:32;;;;;;;2.47;1.05;;;4.20;99.90;;;;;;2017573;71;21167;-69
2021/03/16 05:20:58;;;;;;;4.65;1.35;;;4.20;99.90;;;;;;2016754;71;21226;-70
2021/03/16 05:23:24;;;;;;;5.35;1.05;;;4.20;99.90;;;;;;2017173;71;21094;-69
2021/03/16 05:25:50;;;;;;;6.80;1.00;;;4.20;99.90;;;;;;2015677;71;21129;-70
2021/03/16 05:28:16;;;;;;;2.87;1.10;;;4.20;99.90;;;;;;2017795;71;21012;-70
2021/03/16 05:30:43;;;;;;;5.67;0.85;;;4.30;99.90;;;;;;2017777;71;21086;-70
2021/03/16 05:33:09;;;;;;;13.38;1.98;;;4.30;99.90;;;;;;2015636;71;21059;-70
2021/03/16 05:35:35;;;;;;;4.62;0.98;;;4.40;99.90;;;;;;2016981;71;21478;-70
2021/03/16 05:38:01;;;;;;;2.83;0.82;;;4.40;99.90;;;;;;2017030;71;21428;-70
2021/03/16 05:40:27;;;;;;;9.08;1.05;;;4.40;99.90;;;;;;2015687;71;21482;-69
2021/03/16 05:42:53;;;;;;;2.40;0.68;;;4.40;99.90;;;;;;2017753;71;21047;-70
2021/03/16 05:45:19;;;;;;;3.42;1.35;;;4.50;99.90;;;;;;2016631;71;21020;-69
2021/03/16 05:47:45;;;;;;;2.67;0.88;;;4.50;99.90;;;;;;2017210;71;21058;-69
2021/03/16 05:50:12;;;;;;;1.55;0.90;;;4.50;99.90;;;;;;2017246;71;21124;-70
2021/03/16 05:52:38;;;;;;;3.70;0.90;;;4.50;99.90;;;;;;2015735;71;21047;-70
2021/03/16 05:55:04;;;;;;;2.52;0.90;;;4.40;99.90;;;;;;2015327;71;21011;-70
2021/03/16 05:57:30;;;;;;;4.45;0.98;;;4.40;99.90;;;;;;2017376;71;21059;-69
2021/03/16 05:59:56;;;;;;;2.90;0.88;;;4.40;99.90;;;;;;2017720;71;21543;-69
2021/03/16 06:02:22;;;;;;;3.67;0.88;;;4.40;99.90;;;;;;2016143;71;21618;-70
2021/03/16 06:04:48;;;;;;;2.67;0.78;;;4.30;99.90;;;;;;2015309;71;21113;-70
2021/03/16 06:07:14;;;;;;;2.30;0.88;;;4.30;99.90;;;;;;2015301;71;21086;-69
2021/03/16 06:09:41;;;;;;;0.80;0.80;;;4.40;99.90;;;;;;2017635;71;21047;-70
2021/03/16 06:12:07;;;;;;;1.95;1.07;;;4.40;99.90;;;;;;2016568;71;21132;-71
2021/03/16 06:14:33;;;;;;;4.20;1.35;;;4.40;99.90;;;;;;2017355;71;21152;-71
2021/03/16 06:16:59;;;;;;;4.05;1.27;;;4.40;99.90;;;;;;2016740;71;21128;-70
2021/03/16 06:19:26;;;;;;;3.15;0.95;;;4.50;99.90;;;;;;2014972;71;21043;-71
2021/03/16 06:21:52;;;;;;;2.50;0.93;;;4.60;99.90;;;;;;2014766;71;21069;-69
2021/03/16 06:24:18;;;;;;;4.03;0.88;;;4.70;99.90;;;;;;2015729;71;21171;-69
2021/03/16 06:26:45;;;;;;;3.45;0.93;;;4.70;99.90;;;;;;2015622;71;21564;-69
2021/03/16 06:29:11;;;;;;;2.72;0.62;;;4.70;99.90;;;;;;2015204;71;21548;-70
2021/03/16 06:31:37;;;;;;;7.30;1.25;;;4.70;99.90;;;;;;2017597;71;21479;-72
2021/03/16 06:34:03;;;;;;;1.65;1.07;;;4.70;99.90;;;;;;2016865;71;21055;-71
2021/03/16 06:36:29;;;;;;;3.77;1.12;;;4.70;99.90;;;;;;2015991;71;21048;-70
2021/03/16 06:38:55;;;;;;;4.10;1.30;;;4.70;99.90;;;;;;2016265;71;21028;-72
2021/03/16 06:41:21;;;;;;;1.07;0.68;;;4.70;99.90;;;;;;2016454;71;21055;-73
2021/03/16 06:43:47;;;;;;;2.55;1.15;;;4.80;99.90;;;;;;2015766;71;21038;-73
2021/03/16 06:46:13;;;;;;;3.20;1.30;;;4.80;99.90;;;;;;2016413;71;21135;-72
2021/03/16 06:48:40;;;;;;;2.08;1.20;;;4.90;99.90;;;;;;2014912;71;21056;-73
2021/03/16 06:51:06;;;;;;;2.55;0.95;;;4.80;99.90;;;;;;2016739;71;21124;-72
2021/03/16 06:53:32;;;;;;;3.50;1.22;;;4.90;99.90;;;;;;2015416;71;21055;-72
2021/03/16 06:55:58;;;;;;;3.55;1.30;;;4.90;99.90;;;;;;2016776;71;21008;-71
2021/03/16 06:58:24;;;;;;;7.70;3.15;;;4.90;99.90;;;;;;2016049;71;21063;-72
2021/03/16 07:00:50;;;;;;;1.82;1.20;;;4.90;99.90;;;;;;2017609;71;21587;-71
2021/03/16 07:03:17;;;;;;;5.62;1.35;;;4.90;99.90;;;;;;2016368;71;21536;-76
2021/03/16 07:05:44;;;;;;;4.30;1.62;;;4.90;99.90;;;;;;2015805;71;21098;-72
2021/03/16 07:08:10;;;;;;;5.05;1.40;;;5.00;99.90;;;;;;2016717;71;21128;-71
2021/03/16 07:10:37;;;;;;;7.17;1.15;;;5.00;99.90;;;;;;2016377;71;21120;-71
2021/03/16 07:13:03;;;;;;;6.45;1.20;;;5.00;99.90;;;;;;2016187;71;21055;-72
2021/03/16 07:15:29;;;;;;;4.58;1.67;;;5.00;99.90;;;;;;2016576;71;21132;-73
2021/03/16 07:17:55;;;;;;;2.95;0.82;;;5.00;99.90;;;;;;2016015;71;21067;-71
2021/03/16 07:20:21;;;;;;;5.15;1.15;;;5.00;99.90;;;;;;2016072;71;21012;-72
2021/03/16 07:22:47;;;;;;;2.02;0.85;;;5.00;99.90;;;;;;2016605;71;21520;-72
2021/03/16 07:25:13;;;;;;;4.90;1.50;;;5.00;99.90;;;;;;2016642;71;21458;-72
2021/03/16 07:27:40;;;;;;;2.47;1.40;;;4.90;99.90;;;;;;2017097;71;21532;-72
2021/03/16 07:30:06;;;;;;;1.77;0.93;;;5.00;99.90;;;;;;2017216;71;21059;-72
2021/03/16 07:32:32;;;;;;;10.15;1.17;;;4.90;99.90;;;;;;2015610;71;21035;-71
2021/03/16 07:34:58;;;;;;;2.00;0.88;;;4.80;99.90;;;;;;2016103;71;21011;-72
2021/03/16 07:37:24;;;;;;;1.42;1.02;;;4.70;99.90;;;;;;2017696;71;21004;-71
2021/03/16 07:39:50;;;;;;;1.42;0.90;;;4.60;99.90;;;;;;2016564;71;21051;-71
2021/03/16 07:42:16;;;;;;;3.80;1.47;;;4.60;99.90;;;;;;2016838;71;21011;-71
2021/03/16 07:44:42;;;;;;;6.60;1.45;;;4.40;99.90;;;;;;2017079;71;21093;-71
2021/03/16 07:47:09;;;;;;;2.47;1.02;;;4.20;99.90;;;;;;2017766;71;21582;-71
2021/03/16 07:49:35;;;;;;;7.40;1.50;;;4.10;99.90;;;;;;2017106;71;21531;-71
2021/03/16 07:52:01;;;;;;;4.37;1.15;;;3.90;99.90;;;;;;2015265;71;21478;-71
2021/03/16 07:54:27;;;;;;;3.77;1.55;;;3.90;99.90;;;;;;2015435;71;21043;-71
2021/03/16 07:56:53;;;;;;;3.37;1.20;;;3.80;99.90;;;;;;2017117;71;21107;-70
2021/03/16 07:59:19;;;;;;;2.62;1.65;;;3.90;99.90;;;;;;2015056;71;21016;-71
2021/03/16 08:01:45;;;;;;;5.22;1.72;;;4.00;99.90;;;;;;2017854;71;21008;-71
2021/03/16 08:04:13;;;;;;;3.22;1.32;;;4.10;99.90;;;;;;2016588;71;21007;-71
2021/03/16 08:06:39;;;;;;;2.70;1.32;;;4.20;99.90;;;;;;2017128;71;21055;-71
2021/03/16 08:09:05;;;;;;;17.75;1.85;;;4.40;99.90;;;;;;2017839;71;21051;-71
2021/03/16 08:11:31;;;;;;;6.60;1.35;;;4.60;99.90;;;;;;2017163;71;21175;-71
2021/03/16 08:13:57;;;;;;;5.70;1.70;;;4.60;99.90;;;;;;2016340;71;21054;-71
2021/03/16 08:16:24;;;;;;;4.28;1.47;;;4.90;99.90;;;;;;2017022;71;21124;-72
2021/03/16 08:18:50;;;;;;;6.37;1.52;;;5.10;99.90;;;;;;2016922;71;21069;-73
2021/03/16 08:21:16;;;;;;;5.28;1.05;;;5.30;99.90;;;;;;2016288;71;21139;-73
2021/03/16 08:23:42;;;;;;;3.92;1.40;;;5.40;99.90;;;;;;2017820;71;21531;-69
2021/03/16 08:26:08;;;;;;;6.00;1.80;;;5.40;99.90;;;;;;2017100;71;21534;-71
2021/03/16 08:28:34;;;;;;;3.80;1.82;;;5.50;99.90;;;;;;2015051;71;21524;-70
2021/03/16 08:31:00;;;;;;;4.10;1.32;;;5.60;99.90;;;;;;2016851;71;21404;-70
2021/03/16 08:33:26;;;;;;;5.12;1.20;;;5.60;99.90;;;;;;2017150;71;21008;-71
2021/03/16 08:35:55;;;;;;;5.25;1.75;;;5.50;99.90;;;;;;2015851;71;21098;-73
2021/03/16 08:38:22;;;;;;;2.55;1.02;;;5.40;99.90;;;;;;2016884;71;21012;-74
2021/03/16 08:40:48;;;;;;;2.58;1.00;;;5.40;99.90;;;;;;2017725;71;21054;-73
2021/03/16 08:43:14;;;;;;;5.67;1.55;;;5.40;99.90;;;;;;1994847;71;21026;-73
2021/03/16 08:45:41;;;;;;;3.17;1.47;;;5.40;99.90;;;;;;2017005;71;21055;-72
2021/03/16 08:48:07;;;;;;;3.70;1.35;;;5.30;99.90;;;;;;2016018;71;21502;-73
2021/03/16 08:50:33;;;;;;;3.42;1.25;;;5.20;99.90;;;;;;2017658;71;21063;-74
2021/03/16 08:52:59;;;;;;;7.05;1.60;;;5.30;99.90;;;;;;2017837;71;21482;-73
2021/03/16 08:55:25;;;;;;;6.20;1.90;;;5.40;99.90;;;;;;2015535;71;21124;-73
2021/03/16 08:57:52;;;;;;;11.25;1.40;;;5.50;99.90;;;;;;2015569;71;21134;-73
2021/03/16 09:00:18;;;;;;;9.68;1.55;;;5.70;99.90;;;;;;2017080;71;21560;-74
2021/03/16 09:02:44;;;;;;;6.67;1.65;;;5.80;99.90;;;;;;2017621;71;21482;-72
2021/03/16 09:05:11;;;;;;;7.45;1.07;;;6.00;99.90;;;;;;2016857;71;21067;-72
2021/03/16 09:07:38;;;;;;;8.80;1.22;;;6.10;99.90;;;;;;2016165;71;21058;-73
2021/03/16 09:10:10;;;;;;;9.13;1.57;;;6.10;99.90;;;;;;2015296;71;21051;-75
2021/03/16 09:12:37;;;;;;;3.92;1.55;;;6.30;99.90;;;;;;2018171;71;21016;-72
2021/03/16 09:15:03;;;;;;;1.65;1.05;;;6.30;99.90;;;;;;2017233;71;21020;-73
2021/03/16 09:17:29;;;;;;;9.20;1.55;;;6.20;99.90;;;;;;2016110;71;21020;-75
2021/03/16 09:19:57;;;;;;;5.30;1.75;;;6.20;99.90;;;;;;2016575;71;21416;-75
2021/03/16 09:22:23;;;;;;;4.30;1.20;;;6.30;99.90;;;;;;2017803;71;21091;-74
2021/03/16 09:24:50;;;;;;;3.95;1.30;;;6.30;99.90;;;;;;2017662;71;21023;-74
2021/03/16 09:27:16;;;;;;;2.92;1.10;;;6.30;99.90;;;;;;2017083;71;21012;-74
2021/03/16 09:29:43;;;;;;;6.12;2.20;;;6.30;99.90;;;;;;2015547;71;21106;-73
2021/03/16 09:32:09;;;;;;;8.95;1.55;;;6.20;99.90;;;;;;2015579;71;21012;-73
2021/03/16 09:34:36;;;;;;;3.40;1.30;;;6.20;99.90;;;;;;2015654;71;21024;-74
2021/03/16 09:37:02;;;;;;;7.97;1.65;;;6.20;99.90;;;;;;2016175;71;21023;-73
2021/03/16 09:39:28;;;;;;;7.10;1.67;;;6.20;99.90;;;;;;2016362;71;21063;-73
2021/03/16 09:41:54;;;;;;;10.28;1.40;;;6.20;99.90;;;;;;2017724;71;21128;-73
2021/03/16 09:44:21;;;;;;;8.08;2.10;;;6.10;99.90;;;;;;2017735;71;21050;-73
2021/03/16 09:46:47;;;;;;;2.05;1.00;;;6.20;99.90;;;;;;2015941;71;21058;-71
2021/03/16 09:49:13;;;;;;;6.47;1.40;;;6.20;99.90;;;;;;2016488;71;21502;-72
2021/03/16 09:51:39;;;;;;;6.00;1.75;;;6.00;99.90;;;;;;2017740;71;21431;-72
2021/03/16 09:54:05;;;;;;;10.00;1.70;;;6.10;99.90;;;;;;2016695;71;21540;-73
2021/03/16 09:56:33;;;;;;;2.45;1.37;;;6.30;99.90;;;;;;2017747;71;21530;-73
2021/03/16 09:58:59;;;;;;;5.78;1.35;;;6.60;99.90;;;;;;2016667;71;21101;-73
2021/03/16 10:01:25;;;;;;;3.50;1.40;;;6.60;99.90;;;;;;2016237;71;21109;-73
2021/03/16 10:03:51;;;;;;;2.27;1.47;;;6.50;99.90;;;;;;2016890;71;21054;-73
2021/03/16 10:06:17;;;;;;;8.85;1.50;;;6.50;99.90;;;;;;2015251;71;21019;-73
2021/03/16 10:08:44;;;;;;;3.05;1.27;;;6.30;99.90;;;;;;2016916;71;21058;-72
2021/03/16 10:11:12;;;;;;;4.12;1.20;;;6.20;99.90;;;;;;2017733;71;21120;-74
2021/03/16 10:13:39;;;;;;;3.58;1.60;;;6.10;99.90;;;;;;2017894;71;21033;-72
2021/03/16 10:16:05;;;;;;;4.28;1.50;;;6.00;99.90;;;;;;2015724;71;21567;-72
2021/03/16 10:18:31;;;;;;;2.37;1.17;;;5.90;99.90;;;;;;2016398;71;21121;-72
2021/03/16 10:20:57;;;;;;;5.03;1.25;;;5.90;99.90;;;;;;2015891;71;21047;-73
2021/03/16 10:23:25;;;;;;;3.08;1.07;;;6.20;99.90;;;;;;2016964;71;21052;-72
2021/03/16 10:25:51;;;;;;;1.42;0.93;;;6.10;99.90;;;;;;2015395;71;21135;-73
2021/03/16 10:28:17;;;;;;;6.92;1.40;;;6.10;99.90;;;;;;2017141;71;21120;-73
2021/03/16 10:30:43;;;;;;;5.00;1.30;;;6.30;99.90;;;;;;2017739;71;21066;-71
2021/03/16 10:33:09;;;;;;;1.82;1.37;;;6.40;99.90;;;;;;2016141;71;21046;-72
2021/03/16 10:35:35;;;;;;;4.62;1.42;;;6.50;99.90;;;;;;2017750;71;21035;-71
2021/03/16 10:38:03;;;;;;;4.78;1.52;;;6.70;99.90;;;;;;2016502;71;21060;-70
2021/03/16 10:40:29;;;;;;;8.88;1.80;;;6.60;99.90;;;;;;2017638;71;21470;-71
2021/03/16 10:42:55;;;;;;;6.12;1.82;;;6.80;99.90;;;;;;2017671;71;21039;-71
2021/03/16 10:45:21;;;;;;;3.67;1.10;;;6.90;99.90;;;;;;2015017;71;21028;-72
2021/03/16 10:47:47;;;;;;;8.88;1.95;;;6.90;99.90;;;;;;2017344;71;21012;-72
2021/03/16 10:50:14;;;;;;;8.30;1.85;;;7.10;99.90;;;;;;2017559;71;21046;-72
2021/03/16 10:52:40;;;;;;;4.72;1.65;;;7.10;99.90;;;;;;2017268;71;21558;-72
2021/03/16 10:55:06;;;;;;;6.10;1.70;;;7.00;99.90;;;;;;2015218;71;21145;-72
2021/03/16 10:57:33;;;;;;;5.90;1.70;;;6.80;99.90;;;;;;2017102;71;21090;-71
2021/03/16 10:59:59;;;;;;;4.03;1.32;;;7.00;99.90;;;;;;2016370;71;21193;-71
2021/03/16 11:02:25;;;;;;;3.95;1.70;;;7.20;99.90;;;;;;2017654;71;21116;-72
2021/03/16 11:04:51;;;;;;;4.97;1.60;;;7.40;99.90;;;;;;2017720;71;21051;-71
2021/03/16 11:07:17;;;;;;;4.78;1.65;;;7.50;99.90;;;;;;2017267;71;21015;-71
2021/03/16 11:09:43;;;;;;;9.43;1.50;;;7.60;99.90;;;;;;2015199;71;21051;-71
2021/03/16 11:12:10;;;;;;;5.28;1.77;;;7.60;99.90;;;;;;2016376;71;21046;-69
2021/03/16 11:14:36;;;;;;;4.67;1.70;;;7.50;99.90;;;;;;2018822;71;21039;-71
2021/03/16 11:17:02;;;;;;;8.33;1.62;;;7.50;99.90;;;;;;2017447;71;21124;-70
2021/03/16 11:19:28;;;;;;;4.00;1.98;;;7.50;99.90;;;;;;2017059;71;21120;-72
2021/03/16 11:21:54;;;;;;;10.78;1.87;;;7.40;99.90;;;;;;2016879;71;21047;-71
2021/03/16 11:24:20;;;;;;;3.20;1.52;;;7.50;99.90;;;;;;2016399;71;21032;-72
2021/03/16 11:26:46;;;;;;;2.85;2.08;;;7.50;99.90;;;;;;2016589;71;21131;-71
2021/03/16 11:29:13;;;;;;;5.80;1.75;;;7.40;99.90;;;;;;2015510;71;21128;-78
2021/03/16 11:31:40;;;;;;;4.05;1.62;;;7.50;99.90;;;;;;2017366;71;21059;-75
2021/03/16 11:34:06;;;;;;;2.98;1.52;;;7.40;99.90;;;;;;2017796;71;21039;-75
2021/03/16 11:36:32;;;;;;;6.62;2.62;;;7.30;99.90;;;;;;2016332;71;21070;-76
2021/03/16 11:38:58;;;;;;;6.40;2.22;;;7.20;99.90;;;;;;2015073;71;21023;-75
2021/03/16 11:41:29;;;;;;;3.45;1.50;;;7.20;99.90;;;;;;2016737;71;21123;-74
2021/03/16 11:43:52;;;;;;;2.22;1.50;;;7.30;99.90;;;;;;2016711;70;21087;-73
2021/03/16 11:46:18;;;;;;;11.45;2.00;;;7.30;99.90;;;;;;2016782;71;21051;-73
2021/03/16 11:48:45;;;;;;;7.97;2.05;;;7.30;99.90;;;;;;2016009;71;21124;-73
2021/03/16 11:51:13;;;;;;;3.95;1.72;;;7.20;99.90;;;;;;2016121;71;21117;-73
2021/03/16 11:53:39;;;;;;;6.05;1.77;;;7.20;99.90;;;;;;2014680;71;21112;-74
2021/03/16 11:56:05;;;;;;;3.65;2.10;;;7.20;99.90;;;;;;2017372;71;21039;-73
2021/03/16 11:58:33;;;;;;;3.47;1.90;;;7.20;99.90;;;;;;2017168;71;21051;-74
2021/03/16 12:00:59;;;;;;;3.42;1.50;;;7.00;99.90;;;;;;2014922;71;21520;-74
2021/03/16 12:03:25;;;;;;;8.43;1.80;;;7.00;99.90;;;;;;2016147;71;21498;-73
2021/03/16 12:05:51;;;;;;;4.55;1.77;;;7.00;99.90;;;;;;2017635;71;21145;-73
2021/03/16 12:08:17;;;;;;;4.80;1.20;;;6.90;99.90;;;;;;2015626;71;21058;-73
2021/03/16 12:10:43;;;;;;;8.13;1.20;;;6.80;99.90;;;;;;2016379;71;21094;-72
2021/03/16 12:13:09;;;;;;;3.95;1.30;;;6.40;99.90;;;;;;2017457;71;21059;-72
2021/03/16 12:15:35;;;;;;;2.62;1.30;;;6.20;99.90;;;;;;2015707;71;21463;-72
2021/03/16 12:18:02;;;;;;;9.58;1.60;;;6.00;99.90;;;;;;2016469;71;21536;-71
2021/03/16 12:20:28;;;;;;;2.60;1.25;;;6.00;99.90;;;;;;2016489;71;21124;-71
2021/03/16 12:22:56;;;;;;;6.10;2.37;;;6.10;99.90;;;;;;2017766;71;21054;-72
2021/03/16 12:25:22;;;;;;;2.98;1.37;;;6.30;99.90;;;;;;2015618;71;21556;-71
2021/03/16 12:27:49;;;;;;;3.35;1.25;;;6.50;99.90;;;;;;2014785;71;21416;-72
2021/03/16 12:30:15;;;;;;;3.70;1.67;;;6.70;99.90;;;;;;2015677;71;21062;-71
2021/03/16 12:32:42;;;;;;;10.70;2.10;;;6.80;99.90;;;;;;2017228;71;21054;-70
2021/03/16 12:35:08;;;;;;;3.92;1.65;;;7.00;99.90;;;;;;2017676;71;21128;-70
2021/03/16 12:37:34;;;;;;;9.53;1.98;;;7.20;99.90;;;;;;2017089;71;21020;-71
2021/03/16 12:40:01;;;;;;;11.28;1.90;;;7.30;99.90;;;;;;2015988;71;21063;-72
2021/03/16 12:42:27;;;;;;;2.40;1.45;;;7.40;99.90;;;;;;2017674;71;21140;-70
2021/03/16 12:44:54;;;;;;;7.97;1.70;;;7.40;99.90;;;;;;2014672;71;21102;-74
2021/03/16 12:47:20;;;;;;;8.13;2.00;;;7.50;99.90;;;;;;2017616;71;21035;-71
2021/03/16 12:49:46;;;;;;;2.00;1.30;;;7.60;99.90;;;;;;2016512;71;21559;-71
2021/03/16 12:52:12;;;;;;;11.73;2.10;;;7.80;99.90;;;;;;2017702;71;21536;-72